sensor_id;sensor_type;location;lat;lon;timestamp;pressure;altitude;pressure_sealevel;temperature;humidity
35291;BME280;21411;50.024;19.220;2023-03-04T00:00:14;99074.84;;;-0.27;100.00
35291;BME280;21411;50.024;19.220;2023-03-04T00:03:00;99070.10;;;-0.25;100.00
35291;BME280;21411;50.024;19.220;2023-03-04T00:05:27;99065.39;;;-0.25;100.00
35291;BME280;21411;50.024;19.220;2023-03-04T00:07:53;99065.70;;;-0.24;100.00
35291;BME280;21411;50.024;19.220;2023-03-04T00:10:20;99064.49;;;-0.25;100.00
35291;BME280;21411;50.024;19.220;2023-03-04T00:12:46;99062.38;;;-0.23;100.00
35291;BME280;21411;50.024;19.220;2023-03-04T00:15:13;99056.44;;;-0.23;100.00
35291;BME280;21411;50.024;19.220;2023-03-04T00:17:42;99051.73;;;-0.23;100.00
35291;BME280;21411;50.024;19.220;2023-03-04T00:20:12;99048.73;;;-0.23;100.00
35291;BME280;21411;50.024;19.220;2023-03-04T00:22:38;99049.06;;;-0.22;100.00
35291;BME280;21411;50.024;19.220;2023-03-04T00:25:05;99042.58;;;-0.20;100.00
35291;BME280;21411;50.024;19.220;2023-03-04T00:27:32;99035.56;;;-0.19;100.00
35291;BME280;21411;50.024;19.220;2023-03-04T00:29:58;99034.86;;;-0.18;100.00
35291;BME280;21411;50.024;19.220;2023-03-04T00:32:25;99034.65;;;-0.17;100.00
35291;BME280;21411;50.024;19.220;2023-03-04T00:34:51;99033.73;;;-0.16;100.00
35291;BME280;21411;50.024;19.220;2023-03-04T00:37:18;99027.45;;;-0.16;100.00
35291;BME280;21411;50.024;19.220;2023-03-04T00:39:45;99025.90;;;-0.16;100.00
35291;BME280;21411;50.024;19.220;2023-03-04T00:42:11;99024.00;;;-0.17;100.00
35291;BME280;21411;50.024;19.220;2023-03-04T00:44:38;99019.45;;;-0.17;100.00
35291;BME280;21411;50.024;19.220;2023-03-04T00:47:04;99012.84;;;-0.17;100.00
35291;BME280;21411;50.024;19.220;2023-03-04T00:49:31;99015.09;;;-0.17;100.00
35291;BME280;21411;50.024;19.220;2023-03-04T00:51:57;99011.23;;;-0.16;100.00
35291;BME280;21411;50.024;19.220;2023-03-04T00:54:24;99009.48;;;-0.16;100.00
35291;BME280;21411;50.024;19.220;2023-03-04T00:56:51;99011.40;;;-0.16;100.00
35291;BME280;21411;50.024;19.220;2023-03-04T00:59:17;99007.20;;;-0.15;100.00
35291;BME280;21411;50.024;19.220;2023-03-04T01:01:44;98997.41;;;-0.15;100.00
35291;BME280;21411;50.024;19.220;2023-03-04T01:04:10;98992.34;;;-0.14;100.00
35291;BME280;21411;50.024;19.220;2023-03-04T01:06:37;98993.02;;;-0.14;100.00
35291;BME280;21411;50.024;19.220;2023-03-04T01:09:03;98989.54;;;-0.14;100.00
35291;BME280;21411;50.024;19.220;2023-03-04T01:11:30;98987.77;;;-0.13;100.00
35291;BME280;21411;50.024;19.220;2023-03-04T01:13:56;98980.75;;;-0.12;100.00
35291;BME280;21411;50.024;19.220;2023-03-04T01:16:23;98974.08;;;-0.11;100.00
35291;BME280;21411;50.024;19.220;2023-03-04T01:18:49;98963.45;;;-0.11;100.00
35291;BME280;21411;50.024;19.220;2023-03-04T01:21:16;98952.61;;;-0.11;100.00
35291;BME280;21411;50.024;19.220;2023-03-04T01:23:42;98947.71;;;-0.10;100.00
35291;BME280;21411;50.024;19.220;2023-03-04T01:26:09;98949.59;;;-0.09;100.00
35291;BME280;21411;50.024;19.220;2023-03-04T01:28:35;98943.30;;;-0.09;100.00
35291;BME280;21411;50.024;19.220;2023-03-04T01:31:02;98934.59;;;-0.09;100.00
35291;BME280;21411;50.024;19.220;2023-03-04T01:33:29;98928.67;;;-0.10;100.00
35291;BME280;21411;50.024;19.220;2023-03-04T01:35:56;98925.35;;;-0.11;100.00
35291;BME280;21411;50.024;19.220;2023-03-04T01:38:23;98919.77;;;-0.11;100.00
35291;BME280;21411;50.024;19.220;2023-03-04T01:40:50;98914.36;;;-0.11;100.00
35291;BME280;21411;50.024;19.220;2023-03-04T01:43:23;98914.02;;;-0.11;100.00
35291;BME280;21411;50.024;19.220;2023-03-04T01:45:51;98915.25;;;-0.11;100.00
35291;BME280;21411;50.024;19.220;2023-03-04T01:48:25;98917.55;;;-0.12;100.00
35291;BME280;21411;50.024;19.220;2023-03-04T01:50:53;98912.50;;;-0.13;100.00
35291;BME280;21411;50.024;19.220;2023-03-04T01:53:22;98909.70;;;-0.13;100.00
35291;BME280;21411;50.024;19.220;2023-03-04T01:55:50;98905.33;;;-0.12;100.00
35291;BME280;21411;50.024;19.220;2023-03-04T01:58:17;98906.56;;;-0.12;100.00
35291;BME280;21411;50.024;19.220;2023-03-04T02:00:44;98905.48;;;-0.12;100.00
35291;BME280;21411;50.024;19.220;2023-03-04T02:03:13;98902.84;;;-0.11;100.00
35291;BME280;21411;50.024;19.220;2023-03-04T02:05:43;98900.55;;;-0.10;100.00
35291;BME280;21411;50.024;19.220;2023-03-04T02:08:11;98894.60;;;-0.09;100.00
35291;BME280;21411;50.024;19.220;2023-03-04T02:10:39;98890.43;;;-0.10;100.00
35291;BME280;21411;50.024;19.220;2023-03-04T02:13:07;98884.83;;;-0.09;100.00
35291;BME280;21411;50.024;19.220;2023-03-04T02:15:34;98879.05;;;-0.09;100.00
35291;BME280;21411;50.024;19.220;2023-03-04T02:18:01;98881.33;;;-0.09;100.00
35291;BME280;21411;50.024;19.220;2023-03-04T02:20:47;98879.02;;;-0.08;100.00
35291;BME280;21411;50.024;19.220;2023-03-04T02:23:32;98879.34;;;-0.07;100.00
35291;BME280;21411;50.024;19.220;2023-03-04T02:26:21;98878.29;;;-0.07;100.00
35291;BME280;21411;50.024;19.220;2023-03-04T02:28:50;98873.95;;;-0.07;100.00
35291;BME280;21411;50.024;19.220;2023-03-04T02:31:30;98868.71;;;-0.08;100.00
35291;BME280;21411;50.024;19.220;2023-03-04T02:34:00;98869.73;;;-0.07;100.00
35291;BME280;21411;50.024;19.220;2023-03-04T02:36:28;98870.75;;;-0.05;100.00
35291;BME280;21411;50.024;19.220;2023-03-04T02:39:01;98869.14;;;-0.04;100.00
35291;BME280;21411;50.024;19.220;2023-03-04T02:41:29;98861.63;;;-0.04;100.00
35291;BME280;21411;50.024;19.220;2023-03-04T02:43:56;98858.14;;;-0.04;100.00
35291;BME280;21411;50.024;19.220;2023-03-04T02:46:23;98859.71;;;-0.04;100.00
35291;BME280;21411;50.024;19.220;2023-03-04T02:48:50;98851.54;;;-0.06;100.00
35291;BME280;21411;50.024;19.220;2023-03-04T02:51:17;98845.44;;;-0.06;100.00
35291;BME280;21411;50.024;19.220;2023-03-04T02:53:44;98839.84;;;-0.06;100.00
35291;BME280;21411;50.024;19.220;2023-03-04T02:56:10;98836.67;;;-0.05;100.00
35291;BME280;21411;50.024;19.220;2023-03-04T02:58:36;98831.98;;;-0.05;100.00
35291;BME280;21411;50.024;19.220;2023-03-04T03:01:06;98828.14;;;-0.05;100.00
35291;BME280;21411;50.024;19.220;2023-03-04T03:03:33;98825.34;;;-0.05;100.00
35291;BME280;21411;50.024;19.220;2023-03-04T03:06:00;98826.05;;;-0.06;100.00
35291;BME280;21411;50.024;19.220;2023-03-04T03:08:26;98825.89;;;-0.06;100.00
35291;BME280;21411;50.024;19.220;2023-03-04T03:10:53;98822.61;;;-0.07;100.00
35291;BME280;21411;50.024;19.220;2023-03-04T03:13:20;98819.10;;;-0.07;100.00
35291;BME280;21411;50.024;19.220;2023-03-04T03:15:46;98822.06;;;-0.07;100.00
35291;BME280;21411;50.024;19.220;2023-03-04T03:18:13;98824.85;;;-0.06;100.00
35291;BME280;21411;50.024;19.220;2023-03-04T03:20:40;98822.38;;;-0.06;100.00
35291;BME280;21411;50.024;19.220;2023-03-04T03:23:08;98817.67;;;-0.06;100.00
35291;BME280;21411;50.024;19.220;2023-03-04T03:25:34;98814.89;;;-0.06;100.00
35291;BME280;21411;50.024;19.220;2023-03-04T03:28:01;98813.59;;;-0.10;100.00
35291;BME280;21411;50.024;19.220;2023-03-04T03:30:28;98807.06;;;-0.14;100.00
35291;BME280;21411;50.024;19.220;2023-03-04T03:32:54;98804.27;;;-0.21;100.00
35291;BME280;21411;50.024;19.220;2023-03-04T03:35:21;98803.61;;;-0.29;100.00
35291;BME280;21411;50.024;19.220;2023-03-04T03:37:48;98799.67;;;-0.38;100.00
35291;BME280;21411;50.024;19.220;2023-03-04T03:40:15;98795.03;;;-0.48;100.00
35291;BME280;21411;50.024;19.220;2023-03-04T03:42:42;98795.06;;;-0.56;100.00
35291;BME280;21411;50.024;19.220;2023-03-04T03:45:09;98795.09;;;-0.65;100.00
35291;BME280;21411;50.024;19.220;2023-03-04T03:47:36;98793.73;;;-0.73;100.00
35291;BME280;21411;50.024;19.220;2023-03-04T03:50:03;98793.23;;;-0.80;100.00
35291;BME280;21411;50.024;19.220;2023-03-04T03:52:30;98790.06;;;-0.86;100.00
35291;BME280;21411;50.024;19.220;2023-03-04T03:54:56;98794.55;;;-0.92;100.00
35291;BME280;21411;50.024;19.220;2023-03-04T03:57:23;98793.27;;;-0.98;100.00
35291;BME280;21411;50.024;19.220;2023-03-04T03:59:50;98792.89;;;-1.04;100.00
35291;BME280;21411;50.024;19.220;2023-03-04T04:02:16;98793.18;;;-1.08;100.00
35291;BME280;21411;50.024;19.220;2023-03-04T04:04:43;98799.05;;;-1.13;100.00
35291;BME280;21411;50.024;19.220;2023-03-04T04:07:09;98797.77;;;-1.18;100.00
35291;BME280;21411;50.024;19.220;2023-03-04T04:09:36;98795.94;;;-1.22;100.00
35291;BME280;21411;50.024;19.220;2023-03-04T04:12:06;98793.79;;;-1.27;100.00
35291;BME280;21411;50.024;19.220;2023-03-04T04:14:33;98796.69;;;-1.32;100.00
35291;BME280;21411;50.024;19.220;2023-03-04T04:16:59;98791.41;;;-1.38;100.00
35291;BME280;21411;50.024;19.220;2023-03-04T04:19:26;98794.77;;;-1.41;100.00
35291;BME280;21411;50.024;19.220;2023-03-04T04:21:53;98795.70;;;-1.43;100.00
35291;BME280;21411;50.024;19.220;2023-03-04T04:24:20;98795.59;;;-1.45;100.00
35291;BME280;21411;50.024;19.220;2023-03-04T04:26:47;98797.42;;;-1.50;100.00
35291;BME280;21411;50.024;19.220;2023-03-04T04:29:14;98795.41;;;-1.53;100.00
35291;BME280;21411;50.024;19.220;2023-03-04T04:31:41;98795.80;;;-1.56;100.00
35291;BME280;21411;50.024;19.220;2023-03-04T04:34:08;98796.38;;;-1.59;100.00
35291;BME280;21411;50.024;19.220;2023-03-04T04:36:35;98794.19;;;-1.62;100.00
35291;BME280;21411;50.024;19.220;2023-03-04T04:39:02;98796.35;;;-1.65;100.00
35291;BME280;21411;50.024;19.220;2023-03-04T04:41:38;98797.27;;;-1.67;100.00
35291;BME280;21411;50.024;19.220;2023-03-04T04:44:05;98800.98;;;-1.70;100.00
35291;BME280;21411;50.024;19.220;2023-03-04T04:46:32;98799.11;;;-1.73;100.00
35291;BME280;21411;50.024;19.220;2023-03-04T04:48:59;98800.20;;;-1.74;100.00
35291;BME280;21411;50.024;19.220;2023-03-04T04:51:27;98796.23;;;-1.77;100.00
35291;BME280;21411;50.024;19.220;2023-03-04T04:53:54;98795.58;;;-1.79;100.00
35291;BME280;21411;50.024;19.220;2023-03-04T04:56:22;98796.16;;;-1.82;100.00
35291;BME280;21411;50.024;19.220;2023-03-04T04:59:01;98792.04;;;-1.84;100.00
35291;BME280;21411;50.024;19.220;2023-03-04T05:01:28;98793.00;;;-1.89;100.00
35291;BME280;21411;50.024;19.220;2023-03-04T05:03:55;98787.88;;;-1.94;100.00
35291;BME280;21411;50.024;19.220;2023-03-04T05:06:23;98791.94;;;-1.96;100.00
35291;BME280;21411;50.024;19.220;2023-03-04T05:08:50;98788.60;;;-1.95;100.00
35291;BME280;21411;50.024;19.220;2023-03-04T05:11:18;98788.58;;;-1.93;100.00
35291;BME280;21411;50.024;19.220;2023-03-04T05:13:46;98786.44;;;-1.91;100.00
35291;BME280;21411;50.024;19.220;2023-03-04T05:16:14;98783.27;;;-1.89;100.00
35291;BME280;21411;50.024;19.220;2023-03-04T05:18:41;98784.38;;;-1.85;100.00
35291;BME280;21411;50.024;19.220;2023-03-04T05:21:08;98786.33;;;-1.78;100.00
35291;BME280;21411;50.024;19.220;2023-03-04T05:23:37;98793.86;;;-1.71;100.00
35291;BME280;21411;50.024;19.220;2023-03-04T05:26:05;98788.50;;;-1.64;100.00
35291;BME280;21411;50.024;19.220;2023-03-04T05:28:32;98791.67;;;-1.59;100.00
35291;BME280;21411;50.024;19.220;2023-03-04T05:30:59;98793.66;;;-1.53;100.00
35291;BME280;21411;50.024;19.220;2023-03-04T05:33:26;98797.22;;;-1.48;100.00
35291;BME280;21411;50.024;19.220;2023-03-04T05:35:53;98801.47;;;-1.44;100.00
35291;BME280;21411;50.024;19.220;2023-03-04T05:38:21;98802.93;;;-1.39;100.00
35291;BME280;21411;50.024;19.220;2023-03-04T05:40:47;98808.93;;;-1.35;100.00
35291;BME280;21411;50.024;19.220;2023-03-04T05:43:15;98805.88;;;-1.30;100.00
35291;BME280;21411;50.024;19.220;2023-03-04T05:45:42;98803.39;;;-1.28;100.00
35291;BME280;21411;50.024;19.220;2023-03-04T05:48:09;98808.09;;;-1.28;100.00
35291;BME280;21411;50.024;19.220;2023-03-04T05:50:36;98806.19;;;-1.28;100.00
35291;BME280;21411;50.024;19.220;2023-03-04T05:53:03;98805.13;;;-1.28;100.00
35291;BME280;21411;50.024;19.220;2023-03-04T05:55:29;98809.27;;;-1.27;100.00
35291;BME280;21411;50.024;19.220;2023-03-04T05:57:56;98806.96;;;-1.25;100.00
35291;BME280;21411;50.024;19.220;2023-03-04T06:00:24;98804.63;;;-1.21;100.00
35291;BME280;21411;50.024;19.220;2023-03-04T06:02:51;98803.19;;;-1.19;100.00
35291;BME280;21411;50.024;19.220;2023-03-04T06:05:18;98801.05;;;-1.17;100.00
35291;BME280;21411;50.024;19.220;2023-03-04T06:07:45;98796.60;;;-1.13;100.00
35291;BME280;21411;50.024;19.220;2023-03-04T06:10:14;98795.98;;;-1.09;100.00
35291;BME280;21411;50.024;19.220;2023-03-04T06:12:41;98798.37;;;-1.07;100.00
35291;BME280;21411;50.024;19.220;2023-03-04T06:15:09;98801.65;;;-1.05;100.00
35291;BME280;21411;50.024;19.220;2023-03-04T06:17:36;98803.73;;;-1.04;100.00
35291;BME280;21411;50.024;19.220;2023-03-04T06:20:04;98808.10;;;-1.05;100.00
35291;BME280;21411;50.024;19.220;2023-03-04T06:22:34;98810.84;;;-1.03;100.00
35291;BME280;21411;50.024;19.220;2023-03-04T06:25:01;98817.39;;;-0.99;100.00
35291;BME280;21411;50.024;19.220;2023-03-04T06:27:27;98818.17;;;-0.96;100.00
35291;BME280;21411;50.024;19.220;2023-03-04T06:29:54;98816.77;;;-0.95;100.00
35291;BME280;21411;50.024;19.220;2023-03-04T06:32:21;98817.80;;;-0.95;100.00
35291;BME280;21411;50.024;19.220;2023-03-04T06:34:48;98818.47;;;-0.94;100.00
35291;BME280;21411;50.024;19.220;2023-03-04T06:37:15;98815.81;;;-0.92;100.00
35291;BME280;21411;50.024;19.220;2023-03-04T06:39:42;98814.41;;;-0.92;100.00
35291;BME280;21411;50.024;19.220;2023-03-04T06:42:09;98814.20;;;-0.90;100.00
35291;BME280;21411;50.024;19.220;2023-03-04T06:44:36;98808.89;;;-0.87;100.00
35291;BME280;21411;50.024;19.220;2023-03-04T06:47:03;98805.16;;;-0.84;100.00
35291;BME280;21411;50.024;19.220;2023-03-04T06:49:30;98802.51;;;-0.82;100.00
35291;BME280;21411;50.024;19.220;2023-03-04T06:51:56;98801.62;;;-0.81;100.00
35291;BME280;21411;50.024;19.220;2023-03-04T06:54:23;98800.73;;;-0.81;100.00
35291;BME280;21411;50.024;19.220;2023-03-04T06:56:49;98800.71;;;-0.80;100.00
35291;BME280;21411;50.024;19.220;2023-03-04T06:59:16;98800.20;;;-0.81;100.00
35291;BME280;21411;50.024;19.220;2023-03-04T07:01:43;98806.80;;;-0.80;100.00
35291;BME280;21411;50.024;19.220;2023-03-04T07:04:12;98811.83;;;-0.78;100.00
35291;BME280;21411;50.024;19.220;2023-03-04T07:06:38;98815.60;;;-0.76;100.00
35291;BME280;21411;50.024;19.220;2023-03-04T07:09:05;98816.63;;;-0.75;100.00
35291;BME280;21411;50.024;19.220;2023-03-04T07:11:32;98816.66;;;-0.76;100.00
35291;BME280;21411;50.024;19.220;2023-03-04T07:13:58;98820.45;;;-0.74;100.00
35291;BME280;21411;50.024;19.220;2023-03-04T07:16:25;98823.05;;;-0.73;100.00
35291;BME280;21411;50.024;19.220;2023-03-04T07:18:52;98822.46;;;-0.71;100.00
35291;BME280;21411;50.024;19.220;2023-03-04T07:21:18;98827.44;;;-0.68;100.00
35291;BME280;21411;50.024;19.220;2023-03-04T07:23:45;98828.06;;;-0.64;100.00
35291;BME280;21411;50.024;19.220;2023-03-04T07:26:12;98825.89;;;-0.61;100.00
35291;BME280;21411;50.024;19.220;2023-03-04T07:28:39;98827.26;;;-0.60;100.00
35291;BME280;21411;50.024;19.220;2023-03-04T07:31:34;98831.59;;;-0.58;100.00
35291;BME280;21411;50.024;19.220;2023-03-04T07:34:02;98831.74;;;-0.58;100.00
35291;BME280;21411;50.024;19.220;2023-03-04T07:36:29;98831.75;;;-0.58;100.00
35291;BME280;21411;50.024;19.220;2023-03-04T07:38:57;98831.92;;;-0.58;100.00
35291;BME280;21411;50.024;19.220;2023-03-04T07:41:25;98831.18;;;-0.56;100.00
35291;BME280;21411;50.024;19.220;2023-03-04T07:43:52;98836.88;;;-0.54;100.00
35291;BME280;21411;50.024;19.220;2023-03-04T07:46:19;98834.22;;;-0.52;100.00
35291;BME280;21411;50.024;19.220;2023-03-04T07:48:46;98829.08;;;-0.49;100.00
35291;BME280;21411;50.024;19.220;2023-03-04T07:51:22;98827.94;;;-0.45;100.00
35291;BME280;21411;50.024;19.220;2023-03-04T07:53:51;98833.42;;;-0.41;100.00
35291;BME280;21411;50.024;19.220;2023-03-04T07:56:22;98835.48;;;-0.40;100.00
35291;BME280;21411;50.024;19.220;2023-03-04T07:58:49;98835.61;;;-0.37;100.00
35291;BME280;21411;50.024;19.220;2023-03-04T08:01:21;98840.40;;;-0.34;100.00
35291;BME280;21411;50.024;19.220;2023-03-04T08:03:48;98842.38;;;-0.36;100.00
35291;BME280;21411;50.024;19.220;2023-03-04T08:06:16;98846.58;;;-0.36;100.00
35291;BME280;21411;50.024;19.220;2023-03-04T08:08:44;98847.09;;;-0.36;100.00
35291;BME280;21411;50.024;19.220;2023-03-04T08:11:14;98848.44;;;-0.35;100.00
35291;BME280;21411;50.024;19.220;2023-03-04T08:13:41;98848.73;;;-0.32;100.00
35291;BME280;21411;50.024;19.220;2023-03-04T08:16:11;98851.81;;;-0.30;100.00
35291;BME280;21411;50.024;19.220;2023-03-04T08:18:42;98852.53;;;-0.24;100.00
35291;BME280;21411;50.024;19.220;2023-03-04T08:21:10;98853.00;;;-0.15;100.00
35291;BME280;21411;50.024;19.220;2023-03-04T08:23:38;98850.65;;;-0.05;100.00
35291;BME280;21411;50.024;19.220;2023-03-04T08:26:10;98850.36;;;0.00;100.00
35291;BME280;21411;50.024;19.220;2023-03-04T08:28:37;98845.14;;;0.06;100.00
35291;BME280;21411;50.024;19.220;2023-03-04T08:31:04;98845.17;;;0.11;100.00
35291;BME280;21411;50.024;19.220;2023-03-04T08:33:32;98849.80;;;0.14;100.00
35291;BME280;21411;50.024;19.220;2023-03-04T08:35:59;98852.86;;;0.17;100.00
35291;BME280;21411;50.024;19.220;2023-03-04T08:38:26;98852.17;;;0.17;100.00
35291;BME280;21411;50.024;19.220;2023-03-04T08:40:54;98852.05;;;0.14;100.00
35291;BME280;21411;50.024;19.220;2023-03-04T08:43:22;98855.06;;;0.13;100.00
35291;BME280;21411;50.024;19.220;2023-03-04T08:45:50;98856.10;;;0.14;100.00
35291;BME280;21411;50.024;19.220;2023-03-04T08:48:18;98856.96;;;0.14;100.00
35291;BME280;21411;50.024;19.220;2023-03-04T08:50:45;98856.62;;;0.14;100.00
35291;BME280;21411;50.024;19.220;2023-03-04T08:53:13;98857.52;;;0.13;100.00
35291;BME280;21411;50.024;19.220;2023-03-04T08:55:40;98858.04;;;0.13;100.00
35291;BME280;21411;50.024;19.220;2023-03-04T08:58:08;98856.29;;;0.13;100.00
35291;BME280;21411;50.024;19.220;2023-03-04T09:00:38;98858.56;;;0.12;100.00
35291;BME280;21411;50.024;19.220;2023-03-04T09:03:05;98861.52;;;0.13;100.00
35291;BME280;21411;50.024;19.220;2023-03-04T09:05:31;98865.19;;;0.13;100.00
35291;BME280;21411;50.024;19.220;2023-03-04T09:07:58;98864.64;;;0.14;100.00
35291;BME280;21411;50.024;19.220;2023-03-04T09:10:25;98865.98;;;0.16;100.00
35291;BME280;21411;50.024;19.220;2023-03-04T09:12:52;98866.71;;;0.22;100.00
35291;BME280;21411;50.024;19.220;2023-03-04T09:15:18;98869.88;;;0.27;100.00
35291;BME280;21411;50.024;19.220;2023-03-04T09:17:45;98871.84;;;0.32;100.00
35291;BME280;21411;50.024;19.220;2023-03-04T09:20:12;98861.86;;;0.39;100.00
35291;BME280;21411;50.024;19.220;2023-03-04T09:22:40;98859.91;;;0.47;100.00
35291;BME280;21411;50.024;19.220;2023-03-04T09:25:07;98857.89;;;0.56;100.00
35291;BME280;21411;50.024;19.220;2023-03-04T09:27:34;98856.48;;;0.62;100.00
35291;BME280;21411;50.024;19.220;2023-03-04T09:30:01;98854.27;;;0.66;100.00
35291;BME280;21411;50.024;19.220;2023-03-04T09:32:28;98852.09;;;0.69;100.00
35291;BME280;21411;50.024;19.220;2023-03-04T09:34:54;98850.25;;;0.72;100.00
35291;BME280;21411;50.024;19.220;2023-03-04T09:37:23;98850.90;;;0.74;100.00
35291;BME280;21411;50.024;19.220;2023-03-04T09:39:49;98847.17;;;0.76;100.00
35291;BME280;21411;50.024;19.220;2023-03-04T09:42:44;98843.30;;;0.76;100.00
35291;BME280;21411;50.024;19.220;2023-03-04T09:45:14;98842.66;;;0.75;100.00
35291;BME280;21411;50.024;19.220;2023-03-04T09:47:42;98844.80;;;0.74;100.00
35291;BME280;21411;50.024;19.220;2023-03-04T09:50:10;98843.92;;;0.73;100.00
35291;BME280;21411;50.024;19.220;2023-03-04T09:55:41;98839.06;;;0.72;100.00
35291;BME280;21411;50.024;19.220;2023-03-04T10:06:43;98829.86;;;0.58;100.00
35291;BME280;21411;50.024;19.220;2023-03-04T10:09:16;98829.85;;;0.52;100.00
35291;BME280;21411;50.024;19.220;2023-03-04T10:14:57;98826.20;;;0.57;100.00
35291;BME280;21411;50.024;19.220;2023-03-04T10:17:35;98821.57;;;0.60;100.00
35291;BME280;21411;50.024;19.220;2023-03-04T10:20:06;98815.86;;;0.64;100.00
35291;BME280;21411;50.024;19.220;2023-03-04T10:22:50;98811.88;;;0.63;100.00
35291;BME280;21411;50.024;19.220;2023-03-04T10:25:29;98810.77;;;0.65;100.00
35291;BME280;21411;50.024;19.220;2023-03-04T10:28:01;98812.45;;;0.68;100.00
35291;BME280;21411;50.024;19.220;2023-03-04T10:31:01;98810.08;;;0.71;100.00
35291;BME280;21411;50.024;19.220;2023-03-04T10:33:33;98805.88;;;0.71;100.00
35291;BME280;21411;50.024;19.220;2023-03-04T10:38:49;98803.41;;;0.71;100.00
35291;BME280;21411;50.024;19.220;2023-03-04T10:41:21;98802.19;;;0.77;100.00
35291;BME280;21411;50.024;19.220;2023-03-04T10:46:30;98789.87;;;0.91;100.00
35291;BME280;21411;50.024;19.220;2023-03-04T10:48:58;98787.88;;;0.93;100.00
35291;BME280;21411;50.024;19.220;2023-03-04T10:51:27;98785.02;;;0.95;100.00
35291;BME280;21411;50.024;19.220;2023-03-04T10:54:06;98785.49;;;0.97;100.00
35291;BME280;21411;50.024;19.220;2023-03-04T10:56:38;98784.66;;;0.95;100.00
35291;BME280;21411;50.024;19.220;2023-03-04T10:59:38;98780.94;;;0.92;100.00
35291;BME280;21411;50.024;19.220;2023-03-04T11:05:03;98776.80;;;0.95;100.00
35291;BME280;21411;50.024;19.220;2023-03-04T11:07:30;98774.77;;;1.04;100.00
35291;BME280;21411;50.024;19.220;2023-03-04T11:10:10;98774.15;;;1.12;100.00
35291;BME280;21411;50.024;19.220;2023-03-04T11:12:37;98769.55;;;1.19;100.00
35291;BME280;21411;50.024;19.220;2023-03-04T11:15:16;98765.17;;;1.25;100.00
35291;BME280;21411;50.024;19.220;2023-03-04T11:17:56;98758.69;;;1.31;100.00
35291;BME280;21411;50.024;19.220;2023-03-04T11:20:33;98754.09;;;1.37;100.00
35291;BME280;21411;50.024;19.220;2023-03-04T11:23:10;98753.90;;;1.43;100.00
35291;BME280;21411;50.024;19.220;2023-03-04T11:25:46;98748.40;;;1.50;100.00
35291;BME280;21411;50.024;19.220;2023-03-04T11:31:39;98746.54;;;1.53;100.00
35291;BME280;21411;50.024;19.220;2023-03-04T11:34:23;98740.95;;;1.58;100.00
35291;BME280;21411;50.024;19.220;2023-03-04T11:37:07;98735.64;;;1.65;100.00
35291;BME280;21411;50.024;19.220;2023-03-04T11:44:39;98721.71;;;1.82;100.00
35291;BME280;21411;50.024;19.220;2023-03-04T11:52:38;98714.18;;;1.82;100.00
35291;BME280;21411;50.024;19.220;2023-03-04T12:01:00;98709.31;;;1.81;100.00
35291;BME280;21411;50.024;19.220;2023-03-04T12:09:21;98699.34;;;1.91;100.00
35291;BME280;21411;50.024;19.220;2023-03-04T12:18:10;98690.61;;;1.90;100.00
35291;BME280;21411;50.024;19.220;2023-03-04T12:26:09;98692.90;;;1.89;100.00
35291;BME280;21411;50.024;19.220;2023-03-04T12:29:03;98695.12;;;1.91;100.00
35291;BME280;21411;50.024;19.220;2023-03-04T12:31:35;98689.98;;;1.93;100.00
35291;BME280;21411;50.024;19.220;2023-03-04T12:39:49;98685.15;;;2.00;100.00
35291;BME280;21411;50.024;19.220;2023-03-04T12:45:26;98688.64;;;2.05;100.00
35291;BME280;21411;50.024;19.220;2023-03-04T12:48:23;98686.75;;;2.09;100.00
35291;BME280;21411;50.024;19.220;2023-03-04T12:51:01;98682.17;;;2.14;100.00
35291;BME280;21411;50.024;19.220;2023-03-04T12:54:01;98678.50;;;2.18;100.00
35291;BME280;21411;50.024;19.220;2023-03-04T12:56:40;98673.41;;;2.28;100.00
35291;BME280;21411;50.024;19.220;2023-03-04T12:59:14;98671.42;;;2.34;100.00
35291;BME280;21411;50.024;19.220;2023-03-04T13:01:51;98667.67;;;2.40;100.00
35291;BME280;21411;50.024;19.220;2023-03-04T13:04:59;98666.85;;;2.39;100.00
35291;BME280;21411;50.024;19.220;2023-03-04T13:10:11;98665.07;;;2.44;100.00
35291;BME280;21411;50.024;19.220;2023-03-04T13:12:50;98656.83;;;2.44;100.00
35291;BME280;21411;50.024;19.220;2023-03-04T13:17:51;98655.97;;;2.44;100.00
35291;BME280;21411;50.024;19.220;2023-03-04T13:28:23;98645.63;;;2.44;100.00
35291;BME280;21411;50.024;19.220;2023-03-04T13:43:48;98637.16;;;2.49;100.00
35291;BME280;21411;50.024;19.220;2023-03-04T13:51:22;98632.54;;;2.37;100.00
35291;BME280;21411;50.024;19.220;2023-03-04T13:56:45;98629.52;;;2.30;100.00
35291;BME280;21411;50.024;19.220;2023-03-04T13:59:32;98629.83;;;2.27;100.00
35291;BME280;21411;50.024;19.220;2023-03-04T14:05:00;98627.11;;;2.24;100.00
35291;BME280;21411;50.024;19.220;2023-03-04T14:07:35;98628.48;;;2.25;100.00
35291;BME280;21411;50.024;19.220;2023-03-04T14:10:05;98626.89;;;2.25;100.00
35291;BME280;21411;50.024;19.220;2023-03-04T14:12:36;98626.02;;;2.25;100.00
35291;BME280;21411;50.024;19.220;2023-03-04T14:15:16;98627.27;;;2.24;100.00
35291;BME280;21411;50.024;19.220;2023-03-04T14:17:48;98627.27;;;2.25;100.00
35291;BME280;21411;50.024;19.220;2023-03-04T14:20:35;98618.27;;;2.26;100.00
35291;BME280;21411;50.024;19.220;2023-03-04T14:23:22;98621.92;;;2.27;100.00
35291;BME280;21411;50.024;19.220;2023-03-04T14:25:49;98624.19;;;2.27;100.00
35291;BME280;21411;50.024;19.220;2023-03-04T14:28:20;98622.09;;;2.27;100.00
35291;BME280;21411;50.024;19.220;2023-03-04T14:30:51;98617.03;;;2.26;100.00
35291;BME280;21411;50.024;19.220;2023-03-04T14:33:24;98619.45;;;2.27;100.00
35291;BME280;21411;50.024;19.220;2023-03-04T14:35:55;98617.36;;;2.27;100.00
35291;BME280;21411;50.024;19.220;2023-03-04T14:38:28;98611.71;;;2.28;100.00
35291;BME280;21411;50.024;19.220;2023-03-04T14:41:03;98610.95;;;2.29;100.00